sensor_id;sensor_type;location;lat;lon;timestamp;P1;durP1;ratioP1;P2;durP2;ratioP2
18443;SDS011;9350;53.176;8.194;2022-07-03T00:01:52;7.03;;;4.47;;
18443;SDS011;9350;53.176;8.194;2022-07-03T00:04:19;7.28;;;4.57;;
18443;SDS011;9350;53.176;8.194;2022-07-03T00:06:46;7.40;;;4.80;;
18443;SDS011;9350;53.176;8.194;2022-07-03T00:09:13;4.38;;;3.30;;
18443;SDS011;9350;53.176;8.194;2022-07-03T00:11:40;3.20;;;2.70;;
18443;SDS011;9350;53.176;8.194;2022-07-03T00:14:07;2.78;;;2.33;;
18443;SDS011;9350;53.176;8.194;2022-07-03T00:16:35;3.65;;;2.33;;
18443;SDS011;9350;53.176;8.194;2022-07-03T00:19:01;2.45;;;2.22;;
18443;SDS011;9350;53.176;8.194;2022-07-03T00:21:29;2.55;;;1.98;;
18443;SDS011;9350;53.176;8.194;2022-07-03T00:24:00;3.70;;;1.95;;
18443;SDS011;9350;53.176;8.194;2022-07-03T00:26:30;1.88;;;1.77;;
18443;SDS011;9350;53.176;8.194;2022-07-03T00:29:02;4.15;;;2.03;;
18443;SDS011;9350;53.176;8.194;2022-07-03T00:31:29;4.95;;;2.22;;
18443;SDS011;9350;53.176;8.194;2022-07-03T00:33:58;2.13;;;1.90;;
18443;SDS011;9350;53.176;8.194;2022-07-03T00:36:27;4.10;;;1.92;;
18443;SDS011;9350;53.176;8.194;2022-07-03T00:38:56;2.10;;;2.00;;
18443;SDS011;9350;53.176;8.194;2022-07-03T00:41:26;2.22;;;2.10;;
18443;SDS011;9350;53.176;8.194;2022-07-03T00:43:54;4.95;;;2.00;;
18443;SDS011;9350;53.176;8.194;2022-07-03T00:46:22;2.42;;;2.20;;
18443;SDS011;9350;53.176;8.194;2022-07-03T00:48:50;1.95;;;1.80;;
18443;SDS011;9350;53.176;8.194;2022-07-03T00:51:21;2.40;;;2.22;;
18443;SDS011;9350;53.176;8.194;2022-07-03T00:53:49;4.28;;;2.80;;
18443;SDS011;9350;53.176;8.194;2022-07-03T00:56:19;3.35;;;3.00;;
18443;SDS011;9350;53.176;8.194;2022-07-03T00:58:49;3.15;;;2.67;;
18443;SDS011;9350;53.176;8.194;2022-07-03T01:01:18;5.50;;;2.90;;
18443;SDS011;9350;53.176;8.194;2022-07-03T01:03:45;3.13;;;2.40;;
18443;SDS011;9350;53.176;8.194;2022-07-03T01:06:22;2.25;;;2.15;;
18443;SDS011;9350;53.176;8.194;2022-07-03T01:08:51;2.35;;;2.20;;
18443;SDS011;9350;53.176;8.194;2022-07-03T01:11:26;2.30;;;2.10;;
18443;SDS011;9350;53.176;8.194;2022-07-03T01:14:04;2.08;;;1.90;;
18443;SDS011;9350;53.176;8.194;2022-07-03T01:16:57;2.53;;;2.20;;
18443;SDS011;9350;53.176;8.194;2022-07-03T01:19:29;2.17;;;2.08;;
18443;SDS011;9350;53.176;8.194;2022-07-03T01:22:09;2.55;;;2.30;;
18443;SDS011;9350;53.176;8.194;2022-07-03T01:24:52;4.45;;;2.50;;
18443;SDS011;9350;53.176;8.194;2022-07-03T01:27:31;2.17;;;1.98;;
18443;SDS011;9350;53.176;8.194;2022-07-03T01:30:03;5.07;;;2.30;;
18443;SDS011;9350;53.176;8.194;2022-07-03T01:32:32;4.35;;;2.03;;
18443;SDS011;9350;53.176;8.194;2022-07-03T01:35:02;3.15;;;2.38;;
18443;SDS011;9350;53.176;8.194;2022-07-03T01:37:30;3.30;;;2.42;;
18443;SDS011;9350;53.176;8.194;2022-07-03T01:40:00;2.35;;;2.15;;
18443;SDS011;9350;53.176;8.194;2022-07-03T01:42:30;3.90;;;2.30;;
18443;SDS011;9350;53.176;8.194;2022-07-03T01:45:00;2.20;;;2.00;;
18443;SDS011;9350;53.176;8.194;2022-07-03T01:47:28;4.45;;;2.30;;
18443;SDS011;9350;53.176;8.194;2022-07-03T01:49:57;3.20;;;2.33;;
18443;SDS011;9350;53.176;8.194;2022-07-03T01:52:26;2.28;;;2.08;;
18443;SDS011;9350;53.176;8.194;2022-07-03T01:54:57;3.60;;;2.67;;
18443;SDS011;9350;53.176;8.194;2022-07-03T01:57:26;4.10;;;3.80;;
18443;SDS011;9350;53.176;8.194;2022-07-03T02:00:02;3.45;;;3.10;;
18443;SDS011;9350;53.176;8.194;2022-07-03T02:02:30;4.30;;;3.90;;
18443;SDS011;9350;53.176;8.194;2022-07-03T02:05:00;4.65;;;4.20;;
18443;SDS011;9350;53.176;8.194;2022-07-03T02:07:35;5.18;;;4.10;;
18443;SDS011;9350;53.176;8.194;2022-07-03T02:10:07;5.53;;;3.22;;
18443;SDS011;9350;53.176;8.194;2022-07-03T02:12:38;4.60;;;2.92;;
18443;SDS011;9350;53.176;8.194;2022-07-03T02:15:11;5.18;;;2.45;;
18443;SDS011;9350;53.176;8.194;2022-07-03T02:17:43;3.05;;;2.70;;
18443;SDS011;9350;53.176;8.194;2022-07-03T02:20:12;7.25;;;3.05;;
18443;SDS011;9350;53.176;8.194;2022-07-03T02:22:42;2.97;;;2.67;;
18443;SDS011;9350;53.176;8.194;2022-07-03T02:25:13;3.20;;;2.60;;
18443;SDS011;9350;53.176;8.194;2022-07-03T02:27:47;2.65;;;2.45;;
18443;SDS011;9350;53.176;8.194;2022-07-03T02:30:17;2.55;;;2.30;;
18443;SDS011;9350;53.176;8.194;2022-07-03T02:32:49;2.60;;;2.40;;
18443;SDS011;9350;53.176;8.194;2022-07-03T02:35:18;3.63;;;2.58;;
18443;SDS011;9350;53.176;8.194;2022-07-03T02:37:53;2.20;;;2.10;;
18443;SDS011;9350;53.176;8.194;2022-07-03T02:40:26;4.57;;;2.30;;
18443;SDS011;9350;53.176;8.194;2022-07-03T02:43:02;2.13;;;1.90;;
18443;SDS011;9350;53.176;8.194;2022-07-03T02:45:38;2.10;;;2.00;;
18443;SDS011;9350;53.176;8.194;2022-07-03T02:48:11;2.35;;;2.15;;
18443;SDS011;9350;53.176;8.194;2022-07-03T02:50:45;2.50;;;2.33;;
18443;SDS011;9350;53.176;8.194;2022-07-03T02:53:20;2.65;;;2.40;;
18443;SDS011;9350;53.176;8.194;2022-07-03T02:55:54;3.55;;;2.10;;
18443;SDS011;9350;53.176;8.194;2022-07-03T02:58:41;4.15;;;2.17;;
18443;SDS011;9350;53.176;8.194;2022-07-03T03:01:18;3.03;;;2.35;;
18443;SDS011;9350;53.176;8.194;2022-07-03T03:03:56;2.60;;;2.15;;
18443;SDS011;9350;53.176;8.194;2022-07-03T03:06:30;4.03;;;2.40;;
18443;SDS011;9350;53.176;8.194;2022-07-03T03:09:00;2.35;;;2.15;;
18443;SDS011;9350;53.176;8.194;2022-07-03T03:11:32;4.95;;;2.60;;
18443;SDS011;9350;53.176;8.194;2022-07-03T03:14:05;5.25;;;3.00;;
18443;SDS011;9350;53.176;8.194;2022-07-03T03:16:34;3.85;;;2.83;;
18443;SDS011;9350;53.176;8.194;2022-07-03T03:19:06;3.67;;;2.75;;
18443;SDS011;9350;53.176;8.194;2022-07-03T03:21:34;2.88;;;2.63;;
18443;SDS011;9350;53.176;8.194;2022-07-03T03:24:08;2.80;;;2.60;;
18443;SDS011;9350;53.176;8.194;2022-07-03T03:26:35;3.78;;;2.83;;
18443;SDS011;9350;53.176;8.194;2022-07-03T03:29:05;4.40;;;2.70;;
18443;SDS011;9350;53.176;8.194;2022-07-03T03:31:31;4.10;;;2.40;;
18443;SDS011;9350;53.176;8.194;2022-07-03T03:33:58;7.35;;;2.88;;
18443;SDS011;9350;53.176;8.194;2022-07-03T03:36:26;3.38;;;2.80;;
18443;SDS011;9350;53.176;8.194;2022-07-03T03:38:54;3.58;;;2.85;;
18443;SDS011;9350;53.176;8.194;2022-07-03T03:41:21;3.92;;;2.88;;
18443;SDS011;9350;53.176;8.194;2022-07-03T03:43:48;3.92;;;2.70;;
18443;SDS011;9350;53.176;8.194;2022-07-03T03:46:16;3.22;;;2.97;;
18443;SDS011;9350;53.176;8.194;2022-07-03T03:48:43;6.47;;;3.13;;
18443;SDS011;9350;53.176;8.194;2022-07-03T03:51:10;4.10;;;2.72;;
18443;SDS011;9350;53.176;8.194;2022-07-03T03:53:37;3.03;;;2.55;;
18443;SDS011;9350;53.176;8.194;2022-07-03T03:56:05;5.03;;;3.00;;
18443;SDS011;9350;53.176;8.194;2022-07-03T03:58:33;2.60;;;2.50;;
18443;SDS011;9350;53.176;8.194;2022-07-03T04:01:02;2.92;;;2.72;;
18443;SDS011;9350;53.176;8.194;2022-07-03T04:03:31;4.18;;;2.95;;
18443;SDS011;9350;53.176;8.194;2022-07-03T04:05:59;2.83;;;2.63;;
18443;SDS011;9350;53.176;8.194;2022-07-03T04:08:26;3.13;;;2.70;;
18443;SDS011;9350;53.176;8.194;2022-07-03T04:10:53;4.25;;;2.80;;
18443;SDS011;9350;53.176;8.194;2022-07-03T04:13:21;2.72;;;2.60;;
18443;SDS011;9350;53.176;8.194;2022-07-03T04:15:48;2.83;;;2.63;;
18443;SDS011;9350;53.176;8.194;2022-07-03T04:18:16;5.30;;;2.88;;
18443;SDS011;9350;53.176;8.194;2022-07-03T04:20:45;2.75;;;2.55;;
18443;SDS011;9350;53.176;8.194;2022-07-03T04:23:11;4.15;;;2.67;;
18443;SDS011;9350;53.176;8.194;2022-07-03T04:25:38;3.45;;;2.53;;
18443;SDS011;9350;53.176;8.194;2022-07-03T04:28:05;2.58;;;2.47;;
18443;SDS011;9350;53.176;8.194;2022-07-03T04:30:31;5.95;;;2.90;;
18443;SDS011;9350;53.176;8.194;2022-07-03T04:32:58;4.18;;;2.42;;
18443;SDS011;9350;53.176;8.194;2022-07-03T04:35:25;4.10;;;2.80;;
18443;SDS011;9350;53.176;8.194;2022-07-03T04:37:53;5.35;;;2.95;;
18443;SDS011;9350;53.176;8.194;2022-07-03T04:40:20;4.43;;;3.25;;
18443;SDS011;9350;53.176;8.194;2022-07-03T04:42:47;5.45;;;3.30;;
18443;SDS011;9350;53.176;8.194;2022-07-03T04:45:13;5.55;;;2.83;;
18443;SDS011;9350;53.176;8.194;2022-07-03T04:47:40;4.40;;;2.85;;
18443;SDS011;9350;53.176;8.194;2022-07-03T04:50:07;2.83;;;2.63;;
18443;SDS011;9350;53.176;8.194;2022-07-03T04:52:34;3.10;;;2.90;;
18443;SDS011;9350;53.176;8.194;2022-07-03T04:55:02;4.43;;;3.25;;
18443;SDS011;9350;53.176;8.194;2022-07-03T04:57:29;4.10;;;3.33;;
18443;SDS011;9350;53.176;8.194;2022-07-03T04:59:55;5.60;;;3.50;;
18443;SDS011;9350;53.176;8.194;2022-07-03T05:02:22;3.47;;;3.17;;
18443;SDS011;9350;53.176;8.194;2022-07-03T05:04:49;3.70;;;3.20;;
18443;SDS011;9350;53.176;8.194;2022-07-03T05:07:15;5.55;;;2.85;;
18443;SDS011;9350;53.176;8.194;2022-07-03T05:09:42;4.00;;;3.45;;
18443;SDS011;9350;53.176;8.194;2022-07-03T05:12:10;4.97;;;3.08;;
18443;SDS011;9350;53.176;8.194;2022-07-03T05:14:37;3.50;;;3.20;;
18443;SDS011;9350;53.176;8.194;2022-07-03T05:17:03;4.80;;;3.05;;
18443;SDS011;9350;53.176;8.194;2022-07-03T05:19:30;4.90;;;3.05;;
18443;SDS011;9350;53.176;8.194;2022-07-03T05:21:57;4.97;;;3.08;;
18443;SDS011;9350;53.176;8.194;2022-07-03T05:24:24;5.43;;;3.08;;
18443;SDS011;9350;53.176;8.194;2022-07-03T05:26:50;5.20;;;2.97;;
18443;SDS011;9350;53.176;8.194;2022-07-03T05:29:18;4.32;;;2.70;;
18443;SDS011;9350;53.176;8.194;2022-07-03T05:31:45;4.90;;;2.83;;
18443;SDS011;9350;53.176;8.194;2022-07-03T05:34:12;3.33;;;3.00;;
18443;SDS011;9350;53.176;8.194;2022-07-03T05:36:38;2.92;;;2.53;;
18443;SDS011;9350;53.176;8.194;2022-07-03T05:39:05;3.17;;;2.50;;
18443;SDS011;9350;53.176;8.194;2022-07-03T05:41:50;2.80;;;2.60;;
18443;SDS011;9350;53.176;8.194;2022-07-03T05:44:16;4.50;;;2.50;;
18443;SDS011;9350;53.176;8.194;2022-07-03T05:46:44;4.70;;;2.55;;
18443;SDS011;9350;53.176;8.194;2022-07-03T05:49:11;2.80;;;2.60;;
18443;SDS011;9350;53.176;8.194;2022-07-03T05:51:38;3.92;;;2.50;;
18443;SDS011;9350;53.176;8.194;2022-07-03T05:54:05;4.22;;;2.13;;
18443;SDS011;9350;53.176;8.194;2022-07-03T05:56:31;2.13;;;2.03;;
18443;SDS011;9350;53.176;8.194;2022-07-03T05:58:58;2.78;;;1.95;;
18443;SDS011;9350;53.176;8.194;2022-07-03T06:01:26;6.43;;;2.30;;
18443;SDS011;9350;53.176;8.194;2022-07-03T06:03:53;2.42;;;2.10;;
18443;SDS011;9350;53.176;8.194;2022-07-03T06:06:19;2.53;;;1.88;;
18443;SDS011;9350;53.176;8.194;2022-07-03T06:08:46;3.53;;;1.98;;
18443;SDS011;9350;53.176;8.194;2022-07-03T06:11:13;3.28;;;1.90;;
18443;SDS011;9350;53.176;8.194;2022-07-03T06:13:39;1.73;;;1.63;;
18443;SDS011;9350;53.176;8.194;2022-07-03T06:16:06;3.10;;;2.10;;
18443;SDS011;9350;53.176;8.194;2022-07-03T06:18:34;1.65;;;1.50;;
18443;SDS011;9350;53.176;8.194;2022-07-03T06:21:01;2.05;;;1.83;;
18443;SDS011;9350;53.176;8.194;2022-07-03T06:23:27;2.28;;;1.88;;
18443;SDS011;9350;53.176;8.194;2022-07-03T06:25:54;2.55;;;1.60;;
18443;SDS011;9350;53.176;8.194;2022-07-03T06:28:21;2.42;;;1.65;;
18443;SDS011;9350;53.176;8.194;2022-07-03T06:30:47;1.98;;;1.60;;
18443;SDS011;9350;53.176;8.194;2022-07-03T06:33:14;1.95;;;1.70;;
18443;SDS011;9350;53.176;8.194;2022-07-03T06:35:42;1.73;;;1.60;;
18443;SDS011;9350;53.176;8.194;2022-07-03T06:38:09;2.28;;;1.85;;
18443;SDS011;9350;53.176;8.194;2022-07-03T06:40:35;2.20;;;1.58;;
18443;SDS011;9350;53.176;8.194;2022-07-03T06:43:02;3.15;;;1.70;;
18443;SDS011;9350;53.176;8.194;2022-07-03T06:45:29;4.13;;;1.67;;
18443;SDS011;9350;53.176;8.194;2022-07-03T06:47:56;2.15;;;1.60;;
18443;SDS011;9350;53.176;8.194;2022-07-03T06:50:23;1.75;;;1.52;;
18443;SDS011;9350;53.176;8.194;2022-07-03T06:52:51;1.60;;;1.50;;
18443;SDS011;9350;53.176;8.194;2022-07-03T06:55:18;3.85;;;1.42;;
18443;SDS011;9350;53.176;8.194;2022-07-03T06:57:44;3.33;;;1.63;;
18443;SDS011;9350;53.176;8.194;2022-07-03T07:00:11;1.60;;;1.50;;
18443;SDS011;9350;53.176;8.194;2022-07-03T07:02:39;1.70;;;1.50;;
18443;SDS011;9350;53.176;8.194;2022-07-03T07:05:06;7.63;;;1.90;;
18443;SDS011;9350;53.176;8.194;2022-07-03T07:07:33;1.80;;;1.70;;
18443;SDS011;9350;53.176;8.194;2022-07-03T07:10:01;2.70;;;2.03;;
18443;SDS011;9350;53.176;8.194;2022-07-03T07:12:28;3.55;;;1.70;;
18443;SDS011;9350;53.176;8.194;2022-07-03T07:14:55;4.03;;;1.58;;
18443;SDS011;9350;53.176;8.194;2022-07-03T07:17:21;3.08;;;1.52;;
18443;SDS011;9350;53.176;8.194;2022-07-03T07:19:48;5.15;;;2.00;;
18443;SDS011;9350;53.176;8.194;2022-07-03T07:22:15;3.08;;;1.90;;
18443;SDS011;9350;53.176;8.194;2022-07-03T07:24:41;3.38;;;1.60;;
18443;SDS011;9350;53.176;8.194;2022-07-03T07:27:09;2.55;;;1.77;;
18443;SDS011;9350;53.176;8.194;2022-07-03T07:29:36;2.47;;;1.85;;
18443;SDS011;9350;53.176;8.194;2022-07-03T07:32:03;2.33;;;1.85;;
18443;SDS011;9350;53.176;8.194;2022-07-03T07:34:30;3.30;;;2.15;;
18443;SDS011;9350;53.176;8.194;2022-07-03T07:36:57;2.60;;;2.22;;
18443;SDS011;9350;53.176;8.194;2022-07-03T07:39:24;1.73;;;1.70;;
18443;SDS011;9350;53.176;8.194;2022-07-03T07:41:50;3.78;;;1.70;;
18443;SDS011;9350;53.176;8.194;2022-07-03T07:44:18;2.72;;;1.98;;
18443;SDS011;9350;53.176;8.194;2022-07-03T07:46:45;2.80;;;2.13;;
18443;SDS011;9350;53.176;8.194;2022-07-03T07:49:12;2.95;;;1.90;;
18443;SDS011;9350;53.176;8.194;2022-07-03T07:51:39;3.55;;;2.15;;
18443;SDS011;9350;53.176;8.194;2022-07-03T07:54:06;2.65;;;1.90;;
18443;SDS011;9350;53.176;8.194;2022-07-03T07:56:32;6.10;;;2.03;;
18443;SDS011;9350;53.176;8.194;2022-07-03T07:58:59;2.72;;;1.92;;
18443;SDS011;9350;53.176;8.194;2022-07-03T08:01:27;4.75;;;1.92;;
18443;SDS011;9350;53.176;8.194;2022-07-03T08:04:11;2.50;;;2.20;;
18443;SDS011;9350;53.176;8.194;2022-07-03T08:06:55;3.45;;;1.70;;
18443;SDS011;9350;53.176;8.194;2022-07-03T08:09:22;5.78;;;1.60;;
18443;SDS011;9350;53.176;8.194;2022-07-03T08:11:49;3.55;;;1.90;;
18443;SDS011;9350;53.176;8.194;2022-07-03T08:14:15;5.75;;;1.65;;
18443;SDS011;9350;53.176;8.194;2022-07-03T08:16:43;2.88;;;1.40;;
18443;SDS011;9350;53.176;8.194;2022-07-03T08:19:11;1.73;;;1.60;;
18443;SDS011;9350;53.176;8.194;2022-07-03T08:21:38;2.65;;;1.30;;
18443;SDS011;9350;53.176;8.194;2022-07-03T08:24:06;5.25;;;1.73;;
18443;SDS011;9350;53.176;8.194;2022-07-03T08:26:33;3.28;;;1.80;;
18443;SDS011;9350;53.176;8.194;2022-07-03T08:29:00;2.25;;;1.50;;
18443;SDS011;9350;53.176;8.194;2022-07-03T08:31:26;2.90;;;1.95;;
18443;SDS011;9350;53.176;8.194;2022-07-03T08:33:54;4.75;;;2.10;;
18443;SDS011;9350;53.176;8.194;2022-07-03T08:36:21;2.47;;;1.50;;
18443;SDS011;9350;53.176;8.194;2022-07-03T08:38:48;2.47;;;1.52;;
18443;SDS011;9350;53.176;8.194;2022-07-03T08:41:14;3.03;;;1.83;;
18443;SDS011;9350;53.176;8.194;2022-07-03T08:43:44;3.92;;;1.85;;
18443;SDS011;9350;53.176;8.194;2022-07-03T08:46:11;3.03;;;1.88;;
18443;SDS011;9350;53.176;8.194;2022-07-03T08:48:38;2.40;;;1.90;;
18443;SDS011;9350;53.176;8.194;2022-07-03T08:51:08;1.65;;;1.55;;
18443;SDS011;9350;53.176;8.194;2022-07-03T08:53:34;2.17;;;1.90;;
18443;SDS011;9350;53.176;8.194;2022-07-03T08:56:01;4.22;;;1.80;;
18443;SDS011;9350;53.176;8.194;2022-07-03T08:58:30;2.30;;;1.83;;
18443;SDS011;9350;53.176;8.194;2022-07-03T09:00:57;2.88;;;1.70;;
18443;SDS011;9350;53.176;8.194;2022-07-03T09:03:24;4.35;;;2.30;;
18443;SDS011;9350;53.176;8.194;2022-07-03T09:05:51;3.20;;;2.08;;
18443;SDS011;9350;53.176;8.194;2022-07-03T09:08:19;3.45;;;1.55;;
18443;SDS011;9350;53.176;8.194;2022-07-03T09:10:48;3.80;;;2.05;;
18443;SDS011;9350;53.176;8.194;2022-07-03T09:13:15;3.50;;;1.80;;
18443;SDS011;9350;53.176;8.194;2022-07-03T09:15:42;2.03;;;1.90;;
18443;SDS011;9350;53.176;8.194;2022-07-03T09:18:09;2.97;;;2.45;;
18443;SDS011;9350;53.176;8.194;2022-07-03T09:20:37;3.22;;;2.00;;
18443;SDS011;9350;53.176;8.194;2022-07-03T09:23:12;3.30;;;2.20;;
18443;SDS011;9350;53.176;8.194;2022-07-03T09:25:51;6.25;;;1.80;;
18443;SDS011;9350;53.176;8.194;2022-07-03T09:28:19;1.95;;;1.85;;
18443;SDS011;9350;53.176;8.194;2022-07-03T09:30:56;2.67;;;1.55;;
18443;SDS011;9350;53.176;8.194;2022-07-03T09:33:24;3.30;;;1.42;;
18443;SDS011;9350;53.176;8.194;2022-07-03T09:35:52;1.70;;;1.25;;
18443;SDS011;9350;53.176;8.194;2022-07-03T09:38:20;1.25;;;1.15;;
18443;SDS011;9350;53.176;8.194;2022-07-03T09:40:48;1.40;;;1.30;;
18443;SDS011;9350;53.176;8.194;2022-07-03T09:43:21;3.47;;;1.20;;
18443;SDS011;9350;53.176;8.194;2022-07-03T09:45:50;2.22;;;1.10;;
18443;SDS011;9350;53.176;8.194;2022-07-03T09:48:22;1.33;;;1.20;;
18443;SDS011;9350;53.176;8.194;2022-07-03T09:50:50;3.45;;;1.52;;
18443;SDS011;9350;53.176;8.194;2022-07-03T09:53:44;2.25;;;1.05;;
18443;SDS011;9350;53.176;8.194;2022-07-03T09:56:12;1.17;;;1.17;;
18443;SDS011;9350;53.176;8.194;2022-07-03T09:58:40;1.38;;;1.00;;
18443;SDS011;9350;53.176;8.194;2022-07-03T10:01:16;3.03;;;1.20;;
18443;SDS011;9350;53.176;8.194;2022-07-03T10:03:43;2.83;;;1.50;;
18443;SDS011;9350;53.176;8.194;2022-07-03T10:06:10;2.55;;;1.20;;
18443;SDS011;9350;53.176;8.194;2022-07-03T10:08:37;1.70;;;1.08;;
18443;SDS011;9350;53.176;8.194;2022-07-03T10:11:05;1.25;;;1.20;;
18443;SDS011;9350;53.176;8.194;2022-07-03T10:13:32;2.85;;;1.20;;
18443;SDS011;9350;53.176;8.194;2022-07-03T10:16:03;3.92;;;1.10;;
18443;SDS011;9350;53.176;8.194;2022-07-03T10:18:31;1.75;;;1.08;;
18443;SDS011;9350;53.176;8.194;2022-07-03T10:21:02;1.00;;;1.00;;
18443;SDS011;9350;53.176;8.194;2022-07-03T10:23:32;7.47;;;1.63;;
18443;SDS011;9350;53.176;8.194;2022-07-03T10:25:58;1.88;;;1.02;;
18443;SDS011;9350;53.176;8.194;2022-07-03T10:28:25;3.15;;;1.17;;
18443;SDS011;9350;53.176;8.194;2022-07-03T10:30:53;1.25;;;1.25;;
18443;SDS011;9350;53.176;8.194;2022-07-03T10:33:22;2.90;;;1.13;;
18443;SDS011;9350;53.176;8.194;2022-07-03T10:35:50;4.75;;;1.00;;
18443;SDS011;9350;53.176;8.194;2022-07-03T10:38:22;2.22;;;1.02;;
18443;SDS011;9350;53.176;8.194;2022-07-03T10:41:03;2.17;;;0.95;;
18443;SDS011;9350;53.176;8.194;2022-07-03T10:43:51;1.40;;;0.98;;
18443;SDS011;9350;53.176;8.194;2022-07-03T10:46:36;1.30;;;1.10;;
18443;SDS011;9350;53.176;8.194;2022-07-03T10:49:05;6.93;;;1.05;;
18443;SDS011;9350;53.176;8.194;2022-07-03T10:54:19;1.58;;;1.42;;
18443;SDS011;9350;53.176;8.194;2022-07-03T10:57:06;1.42;;;1.10;;
18443;SDS011;9350;53.176;8.194;2022-07-03T10:59:55;2.50;;;1.00;;
18443;SDS011;9350;53.176;8.194;2022-07-03T11:02:28;1.65;;;1.42;;
18443;SDS011;9350;53.176;8.194;2022-07-03T11:08:07;2.35;;;1.30;;
18443;SDS011;9350;53.176;8.194;2022-07-03T11:10:43;1.48;;;0.98;;
18443;SDS011;9350;53.176;8.194;2022-07-03T11:13:17;1.45;;;1.30;;
18443;SDS011;9350;53.176;8.194;2022-07-03T11:15:48;1.67;;;1.20;;
18443;SDS011;9350;53.176;8.194;2022-07-03T11:18:25;1.30;;;1.20;;
18443;SDS011;9350;53.176;8.194;2022-07-03T11:21:11;4.97;;;1.33;;
18443;SDS011;9350;53.176;8.194;2022-07-03T11:27:11;3.28;;;1.02;;
18443;SDS011;9350;53.176;8.194;2022-07-03T11:29:49;1.55;;;1.20;;
18443;SDS011;9350;53.176;8.194;2022-07-03T11:38:15;1.20;;;1.00;;
18443;SDS011;9350;53.176;8.194;2022-07-03T11:40:44;1.35;;;1.10;;
18443;SDS011;9350;53.176;8.194;2022-07-03T11:43:13;1.48;;;1.00;;
18443;SDS011;9350;53.176;8.194;2022-07-03T11:45:40;1.02;;;1.00;;
18443;SDS011;9350;53.176;8.194;2022-07-03T11:48:08;2.53;;;1.10;;
18443;SDS011;9350;53.176;8.194;2022-07-03T11:50:36;2.75;;;1.00;;
18443;SDS011;9350;53.176;8.194;2022-07-03T11:53:15;2.97;;;0.88;;
18443;SDS011;9350;53.176;8.194;2022-07-03T11:55:50;4.82;;;1.17;;
18443;SDS011;9350;53.176;8.194;2022-07-03T11:58:18;1.30;;;0.95;;
18443;SDS011;9350;53.176;8.194;2022-07-03T12:00:45;1.85;;;0.93;;
18443;SDS011;9350;53.176;8.194;2022-07-03T12:03:15;2.20;;;1.00;;
18443;SDS011;9350;53.176;8.194;2022-07-03T12:05:55;1.50;;;1.08;;
18443;SDS011;9350;53.176;8.194;2022-07-03T12:08:29;1.52;;;1.00;;
18443;SDS011;9350;53.176;8.194;2022-07-03T12:10:58;1.33;;;1.00;;
18443;SDS011;9350;53.176;8.194;2022-07-03T12:13:26;1.80;;;1.13;;
18443;SDS011;9350;53.176;8.194;2022-07-03T12:16:00;1.23;;;1.10;;
18443;SDS011;9350;53.176;8.194;2022-07-03T12:18:28;1.77;;;1.20;;
18443;SDS011;9350;53.176;8.194;2022-07-03T12:21:11;2.08;;;1.08;;
18443;SDS011;9350;53.176;8.194;2022-07-03T12:23:43;1.42;;;1.33;;
18443;SDS011;9350;53.176;8.194;2022-07-03T12:26:12;2.05;;;1.10;;
18443;SDS011;9350;53.176;8.194;2022-07-03T12:28:39;2.83;;;1.42;;
18443;SDS011;9350;53.176;8.194;2022-07-03T12:31:06;1.10;;;1.02;;
18443;SDS011;9350;53.176;8.194;2022-07-03T12:33:33;1.23;;;1.10;;
18443;SDS011;9350;53.176;8.194;2022-07-03T12:36:01;0.90;;;0.90;;
18443;SDS011;9350;53.176;8.194;2022-07-03T12:38:29;1.20;;;1.10;;
18443;SDS011;9350;53.176;8.194;2022-07-03T12:41:03;3.58;;;1.50;;
18443;SDS011;9350;53.176;8.194;2022-07-03T12:43:35;1.25;;;1.08;;
18443;SDS011;9350;53.176;8.194;2022-07-03T12:46:05;2.38;;;1.50;;
18443;SDS011;9350;53.176;8.194;2022-07-03T12:48:44;2.22;;;1.42;;
18443;SDS011;9350;53.176;8.194;2022-07-03T12:51:11;1.77;;;1.67;;
18443;SDS011;9350;53.176;8.194;2022-07-03T12:53:38;3.20;;;1.40;;
18443;SDS011;9350;53.176;8.194;2022-07-03T12:56:08;3.38;;;1.50;;
18443;SDS011;9350;53.176;8.194;2022-07-03T12:58:37;4.25;;;1.75;;
18443;SDS011;9350;53.176;8.194;2022-07-03T13:01:23;1.50;;;1.40;;
18443;SDS011;9350;53.176;8.194;2022-07-03T13:03:53;4.72;;;1.65;;
18443;SDS011;9350;53.176;8.194;2022-07-03T13:06:20;3.50;;;1.40;;
18443;SDS011;9350;53.176;8.194;2022-07-03T13:08:49;2.03;;;1.70;;
18443;SDS011;9350;53.176;8.194;2022-07-03T13:11:27;2.63;;;1.60;;
18443;SDS011;9350;53.176;8.194;2022-07-03T13:14:05;2.38;;;1.70;;
18443;SDS011;9350;53.176;8.194;2022-07-03T13:16:37;3.47;;;1.40;;
18443;SDS011;9350;53.176;8.194;2022-07-03T13:19:06;2.60;;;1.52;;
18443;SDS011;9350;53.176;8.194;2022-07-03T13:21:34;1.67;;;1.55;;
18443;SDS011;9350;53.176;8.194;2022-07-03T13:24:01;2.60;;;1.60;;
18443;SDS011;9350;53.176;8.194;2022-07-03T13:26:30;3.25;;;1.88;;
18443;SDS011;9350;53.176;8.194;2022-07-03T13:28:57;3.00;;;1.77;;
18443;SDS011;9350;53.176;8.194;2022-07-03T13:31:24;4.63;;;1.80;;
18443;SDS011;9350;53.176;8.194;2022-07-03T13:33:50;2.90;;;1.48;;
18443;SDS011;9350;53.176;8.194;2022-07-03T13:36:17;2.17;;;1.58;;
18443;SDS011;9350;53.176;8.194;2022-07-03T13:38:44;3.38;;;1.70;;
18443;SDS011;9350;53.176;8.194;2022-07-03T13:41:11;1.50;;;1.40;;
18443;SDS011;9350;53.176;8.194;2022-07-03T13:43:39;3.92;;;1.60;;
18443;SDS011;9350;53.176;8.194;2022-07-03T13:46:06;2.25;;;1.38;;
18443;SDS011;9350;53.176;8.194;2022-07-03T13:48:33;2.25;;;1.40;;
18443;SDS011;9350;53.176;8.194;2022-07-03T13:51:00;5.10;;;1.60;;
18443;SDS011;9350;53.176;8.194;2022-07-03T13:53:26;1.50;;;1.40;;
18443;SDS011;9350;53.176;8.194;2022-07-03T13:55:54;3.15;;;1.48;;
18443;SDS011;9350;53.176;8.194;2022-07-03T13:58:21;1.95;;;1.25;;
18443;SDS011;9350;53.176;8.194;2022-07-03T14:00:49;2.33;;;1.35;;
18443;SDS011;9350;53.176;8.194;2022-07-03T14:03:16;3.88;;;1.27;;
18443;SDS011;9350;53.176;8.194;2022-07-03T14:05:43;2.45;;;1.40;;
18443;SDS011;9350;53.176;8.194;2022-07-03T14:08:10;2.00;;;1.17;;
18443;SDS011;9350;53.176;8.194;2022-07-03T14:10:37;2.05;;;1.40;;
18443;SDS011;9350;53.176;8.194;2022-07-03T14:13:04;1.88;;;1.30;;
18443;SDS011;9350;53.176;8.194;2022-07-03T14:15:32;1.52;;;1.30;;
18443;SDS011;9350;53.176;8.194;2022-07-03T14:18:00;1.00;;;0.95;;
18443;SDS011;9350;53.176;8.194;2022-07-03T14:20:27;3.58;;;1.42;;
18443;SDS011;9350;53.176;8.194;2022-07-03T14:22:54;3.58;;;1.33;;
18443;SDS011;9350;53.176;8.194;2022-07-03T14:25:21;2.28;;;1.17;;
18443;SDS011;9350;53.176;8.194;2022-07-03T14:27:48;2.65;;;1.10;;
18443;SDS011;9350;53.176;8.194;2022-07-03T14:30:32;1.95;;;1.17;;
18443;SDS011;9350;53.176;8.194;2022-07-03T14:33:18;2.55;;;1.48;;
18443;SDS011;9350;53.176;8.194;2022-07-03T14:35:45;2.05;;;1.20;;
18443;SDS011;9350;53.176;8.194;2022-07-03T14:38:12;1.48;;;1.15;;
18443;SDS011;9350;53.176;8.194;2022-07-03T14:40:38;1.60;;;1.50;;
18443;SDS011;9350;53.176;8.194;2022-07-03T14:43:05;1.55;;;1.15;;
18443;SDS011;9350;53.176;8.194;2022-07-03T14:45:32;1.38;;;1.30;;
18443;SDS011;9350;53.176;8.194;2022-07-03T14:47:58;2.75;;;1.05;;
18443;SDS011;9350;53.176;8.194;2022-07-03T14:50:27;7.03;;;2.40;;
18443;SDS011;9350;53.176;8.194;2022-07-03T14:52:53;2.97;;;2.28;;
18443;SDS011;9350;53.176;8.194;2022-07-03T14:55:20;3.78;;;1.52;;
18443;SDS011;9350;53.176;8.194;2022-07-03T14:57:49;0.80;;;0.80;;
18443;SDS011;9350;53.176;8.194;2022-07-03T15:00:18;3.03;;;1.00;;
18443;SDS011;9350;53.176;8.194;2022-07-03T15:02:48;1.08;;;1.00;;
18443;SDS011;9350;53.176;8.194;2022-07-03T15:05:19;1.02;;;1.00;;
18443;SDS011;9350;53.176;8.194;2022-07-03T15:07:52;1.38;;;1.10;;
18443;SDS011;9350;53.176;8.194;2022-07-03T15:10:25;1.85;;;1.10;;
18443;SDS011;9350;53.176;8.194;2022-07-03T15:12:53;1.58;;;0.90;;
18443;SDS011;9350;53.176;8.194;2022-07-03T15:15:20;2.13;;;1.10;;
18443;SDS011;9350;53.176;8.194;2022-07-03T15:17:49;3.50;;;1.42;;
18443;SDS011;9350;53.176;8.194;2022-07-03T15:20:17;2.05;;;1.60;;
18443;SDS011;9350;53.176;8.194;2022-07-03T15:22:45;1.20;;;1.20;;
18443;SDS011;9350;53.176;8.194;2022-07-03T15:25:15;1.48;;;1.02;;
18443;SDS011;9350;53.176;8.194;2022-07-03T15:27:43;3.40;;;1.25;;
18443;SDS011;9350;53.176;8.194;2022-07-03T15:30:15;1.58;;;1.05;;